This is the latest recevied weather packets stored in our database for station/object HS1AXC-1. If no packets are shown the sender has not sent any weather packets the latest 10 day(s).
| Time | Temp. | Humidity | Pressure | Rain* | Wind** | Luminosity | Snow |
|---|---|---|---|---|---|---|---|
| 1777388698 | 34.44° C | 72% | 1009 hPa | - | - | 0 W/m² | - |
| 1777388354 | 34.44° C | 73% | 1009 hPa | - | - | 0 W/m² | - |
| 1777387731 | 34.44° C | 71% | 1009 hPa | - | - | 0 W/m² | - |
| 1777387109 | 34.44° C | 72% | 1008 hPa | - | - | 0 W/m² | - |
| 1777386487 | 35° C | 71% | 1008 hPa | - | - | 0 W/m² | - |
| 1777385865 | 34.44° C | 71% | 1008 hPa | - | - | 0 W/m² | - |
| 1777385105 | 35° C | 69% | 1008 hPa | - | - | 0 W/m² | - |
| 1777384483 | 34.44° C | 71% | 1008 hPa | - | - | 0 W/m² | - |
| 1777383861 | 34.44° C | 69% | 1008 hPa | - | - | 0 W/m² | - |
| 1777383239 | 35° C | 67% | 1007 hPa | - | - | 0 W/m² | - |
| 1777382617 | 35.56° C | 66% | 1007 hPa | - | - | 0 W/m² | - |
| 1777381995 | 34.44° C | 68% | 1007 hPa | - | - | 0 W/m² | - |
| 1777381373 | 35.56° C | 66% | 1007 hPa | - | - | 0 W/m² | - |
| 1777380751 | 35.56° C | 63% | 1007 hPa | - | - | 0 W/m² | - |
| 1777380129 | 35.56° C | 61% | 1006 hPa | - | - | 0 W/m² | - |
| 1777379507 | 35.56° C | 59% | 1006 hPa | - | - | 0 W/m² | - |
| 1777378885 | 36.67° C | 55% | 1006 hPa | - | - | 0 W/m² | - |
| 1777378263 | 36.67° C | 51% | 1006 hPa | - | - | 0 W/m² | - |
| 1777377641 | 36.11° C | 50% | 1006 hPa | - | - | 0 W/m² | - |
| 1777377292 | 36.11° C | 50% | 1006 hPa | - | - | 0 W/m² | - |
| 1777376670 | 36.67° C | 50% | 1006 hPa | - | - | 0 W/m² | - |
| 1777376048 | 36.67° C | 48% | 1006 hPa | - | - | 0 W/m² | - |
| 1777375708 | 36.67° C | 49% | 1005 hPa | - | - | 0 W/m² | - |
| 1777375086 | 36.67° C | 48% | 1005 hPa | - | - | 0 W/m² | - |
| 1777374464 | 36.11° C | 49% | 1005 hPa | - | - | 0 W/m² | - |
* Rain since midnight (hover to see other rain measurements)
** Current wind speed in m/s (hover to see current wind gust speed)